Time;durP1;ratioP1;P1;durP2;ratioP2;P2;SDS_P1;SDS_P2;PMS_P1;PMS_P2;Temp;Humidity;BMP_temperature;BMP_pressure;BME280_temperature;BME280_humidity;BME280_pressure;Samples;Min_cycle;Max_cycle;Signal;HPM_P1;HPM_P2
2022/05/10 00:01:33;;;;;;;;;;;18.40;75.00;;;;;;5034411;28;20068;-71
2022/05/10 00:03:59;;;;;;;;;;;18.40;75.80;;;;;;5035942;28;20090;-71
2022/05/10 00:06:25;;;;;;;;;;;18.40;76.40;;;;;;5030199;28;20624;-70
2022/05/10 00:08:51;;;;;;;;;;;18.30;74.70;;;;;;5032368;28;20310;-70
2022/05/10 00:11:16;;;;;;;;;;;18.30;74.30;;;;;;5028426;28;19923;-71
2022/05/10 00:13:42;;;;;;;;;;;18.30;73.80;;;;;;5041887;28;20521;-70
2022/05/10 00:16:14;;;;;;;;;;;18.30;74.30;;;;;;5031282;28;20373;-70
2022/05/10 00:18:40;;;;;;;;;;;18.30;73.20;;;;;;5033679;28;19913;-70
2022/05/10 00:21:06;;;;;;;;;;;18.30;74.30;;;;;;5028504;28;19913;-70
2022/05/10 00:23:32;;;;;;;;;;;18.30;74.00;;;;;;5039822;28;19921;-70
2022/05/10 00:25:57;;;;;;;;;;;18.20;75.10;;;;;;5040708;28;19916;-70
2022/05/10 00:28:23;;;;;;;;;;;18.20;73.60;;;;;;5032668;28;19913;-69
2022/05/10 00:30:48;;;;;;;;;;;18.30;74.20;;;;;;5033503;28;19959;-71
2022/05/10 00:33:17;;;;;;;;;;;18.30;73.50;;;;;;5029542;28;20397;-70
2022/05/10 00:35:42;;;;;;;;;;;18.20;74.00;;;;;;5029047;28;19913;-70
2022/05/10 00:38:08;;;;;;;;;;;18.30;74.50;;;;;;5028507;28;19909;-70
2022/05/10 00:40:34;;;;;;;;;;;18.30;75.40;;;;;;5028685;28;20668;-71
2022/05/10 00:43:12;;;;;;;;;;;18.20;74.90;;;;;;5032470;28;19924;-71
2022/05/10 00:45:42;;;;;;;;;;;18.20;74.10;;;;;;5033202;28;20058;-71
2022/05/10 00:48:22;;;;;;;;;;;18.20;74.50;;;;;;5027719;28;19948;-71
2022/05/10 00:50:53;;;;;;;;;;;18.10;77.10;;;;;;5034092;28;19986;-72
2022/05/10 00:53:25;;;;;;;;;;;18.10;78.00;;;;;;5034452;28;19920;-71
2022/05/10 00:55:53;;;;;;;;;;;18.00;78.70;;;;;;5026235;28;19917;-69
2022/05/10 00:58:31;;;;;;;;;;;18.00;77.70;;;;;;5040233;28;19921;-70
2022/05/10 01:00:57;;;;;;;;;;;18.00;79.30;;;;;;5040648;28;19912;-70
2022/05/10 01:03:35;;;;;;;;;;;17.90;78.80;;;;;;5064077;28;19921;-68
2022/05/10 01:06:01;;;;;;;;;;;17.90;78.30;;;;;;5030822;28;20396;-68
2022/05/10 01:08:27;;;;;;;;;;;17.90;80.10;;;;;;5034271;28;19921;-70
2022/05/10 01:11:08;;;;;;;;;;;17.80;80.10;;;;;;5043004;28;19939;-68
2022/05/10 01:13:52;;;;;;;;;;;17.80;80.80;;;;;;5028109;28;19922;-68
2022/05/10 01:16:20;;;;;;;;;;;17.70;80.40;;;;;;5030303;28;19935;-68
2022/05/10 01:18:45;;;;;;;;;;;17.70;81.90;;;;;;5031309;28;19913;-68
2022/05/10 01:21:20;;;;;;;;;;;17.70;82.40;;;;;;5027728;28;19920;-68
2022/05/10 01:23:55;;;;;;;;;;;17.60;82.80;;;;;;5028923;28;19943;-68
2022/05/10 01:26:26;;;;;;;;;;;17.60;81.80;;;;;;5034394;28;20362;-65
2022/05/10 01:28:54;;;;;;;;;;;17.60;81.50;;;;;;5043152;28;20366;-66
2022/05/10 01:31:23;;;;;;;;;;;17.50;81.40;;;;;;5029197;28;20259;-64
2022/05/10 01:33:54;;;;;;;;;;;17.50;81.90;;;;;;5031075;28;20293;-65
2022/05/10 01:36:20;;;;;;;;;;;17.50;83.20;;;;;;5035154;28;20021;-65
2022/05/10 01:38:48;;;;;;;;;;;17.50;83.90;;;;;;5031878;28;20366;-65
2022/05/10 01:41:20;;;;;;;;;;;17.40;83.10;;;;;;5029321;28;19917;-64
2022/05/10 01:43:55;;;;;;;;;;;17.40;83.70;;;;;;5033197;28;19931;-65
2022/05/10 01:46:23;;;;;;;;;;;17.40;84.20;;;;;;5028491;28;19975;-65
2022/05/10 01:48:52;;;;;;;;;;;17.30;84.90;;;;;;5040766;28;19920;-65
2022/05/10 01:51:27;;;;;;;;;;;17.30;85.50;;;;;;5029148;28;19924;-64
2022/05/10 01:53:53;;;;;;;;;;;17.30;83.80;;;;;;5027015;28;19913;-65
2022/05/10 01:56:24;;;;;;;;;;;17.20;83.80;;;;;;5030546;28;19912;-65
2022/05/10 01:58:50;;;;;;;;;;;17.20;84.50;;;;;;5040757;28;19921;-64
2022/05/10 02:01:34;;;;;;;;;;;17.20;84.10;;;;;;5031046;28;19924;-64
2022/05/10 02:04:08;;;;;;;;;;;17.20;85.60;;;;;;5031246;28;19917;-65
2022/05/10 02:06:34;;;;;;;;;;;17.20;86.70;;;;;;5028675;28;20468;-66
2022/05/10 02:09:18;;;;;;;;;;;17.10;85.50;;;;;;5030358;28;20007;-63
2022/05/10 02:11:52;;;;;;;;;;;17.10;87.20;;;;;;5030212;28;19916;-66
2022/05/10 02:14:22;;;;;;;;;;;17.00;87.40;;;;;;5027754;28;19917;-66
2022/05/10 02:16:54;;;;;;;;;;;17.00;87.40;;;;;;5028083;28;20004;-65
2022/05/10 02:19:24;;;;;;;;;;;17.00;87.80;;;;;;5027856;28;19922;-66
2022/05/10 02:22:23;;;;;;;;;;;17.00;88.00;;;;;;5030593;28;19921;-63
2022/05/10 02:24:53;;;;;;;;;;;16.90;86.90;;;;;;4989476;28;19924;-66
2022/05/10 02:27:20;;;;;;;;;;;17.00;87.10;;;;;;4985683;28;20525;-64
2022/05/10 02:29:48;;;;;;;;;;;16.90;88.80;;;;;;4976610;28;20296;-65
2022/05/10 02:35:03;;;;;;;;;;;16.90;89.50;;;;;;4988071;28;19968;-65
2022/05/10 02:37:30;;;;;;;;;;;16.90;89.70;;;;;;5002945;28;19985;-61
2022/05/10 02:39:55;;;;;;;;;;;16.80;88.60;;;;;;4990345;28;20439;-65
2022/05/10 02:42:22;;;;;;;;;;;16.90;88.50;;;;;;4984625;28;20000;-65
2022/05/10 02:44:50;;;;;;;;;;;16.90;89.90;;;;;;4987577;28;19918;-66
2022/05/10 02:47:26;;;;;;;;;;;16.80;90.00;;;;;;4988244;28;20025;-64
2022/05/10 02:49:52;;;;;;;;;;;16.80;89.90;;;;;;4988824;28;19921;-65
2022/05/10 02:52:17;;;;;;;;;;;16.80;89.80;;;;;;4990033;28;19914;-66
2022/05/10 02:54:43;;;;;;;;;;;16.80;89.30;;;;;;5004482;28;19909;-65
2022/05/10 02:57:08;;;;;;;;;;;16.90;89.60;;;;;;4990832;28;19920;-65
2022/05/10 02:59:34;;;;;;;;;;;16.90;89.10;;;;;;4993811;28;19920;-66
2022/05/10 03:02:07;;;;;;;;;;;16.80;88.90;;;;;;5041523;28;19944;-63
2022/05/10 03:04:37;;;;;;;;;;;16.80;90.00;;;;;;5030306;28;19929;-64
2022/05/10 03:07:04;;;;;;;;;;;16.90;90.90;;;;;;5033618;28;19910;-64
2022/05/10 03:09:29;;;;;;;;;;;16.80;90.40;;;;;;5032833;28;19936;-64
2022/05/10 03:11:55;;;;;;;;;;;16.80;90.70;;;;;;5030297;28;20273;-63
2022/05/10 03:14:21;;;;;;;;;;;16.80;90.80;;;;;;5030124;28;19967;-62
2022/05/10 03:16:46;;;;;;;;;;;16.80;90.90;;;;;;5031820;28;19942;-65
2022/05/10 03:19:12;;;;;;;;;;;16.80;91.00;;;;;;5032424;28;19913;-62
2022/05/10 03:21:39;;;;;;;;;;;16.80;91.70;;;;;;5031944;28;20386;-64
2022/05/10 03:24:04;;;;;;;;;;;16.80;91.20;;;;;;5029949;28;19948;-63
2022/05/10 03:26:30;;;;;;;;;;;16.80;91.30;;;;;;5030484;28;19951;-65
2022/05/10 03:28:56;;;;;;;;;;;16.70;91.90;;;;;;5030224;28;19913;-63
2022/05/10 03:31:22;;;;;;;;;;;16.70;92.30;;;;;;5032288;28;19967;-65
2022/05/10 03:34:53;;;;;;;;;;;16.70;92.10;;;;;;5041053;28;20011;-64
2022/05/10 03:36:33;;;;;;;;;;;16.70;91.70;;;;;;5031971;28;19928;-64
2022/05/10 03:38:59;;;;;;;;;;;16.70;91.60;;;;;;5032906;28;19917;-63
2022/05/10 03:41:24;;;;;;;;;;;16.70;91.80;;;;;;5030326;28;19917;-63
2022/05/10 03:43:50;;;;;;;;;;;16.70;91.60;;;;;;5029701;28;20500;-63
2022/05/10 03:46:15;;;;;;;;;;;16.70;92.10;;;;;;5033304;28;19923;-65
2022/05/10 03:48:41;;;;;;;;;;;16.70;92.30;;;;;;5042884;28;19932;-64
2022/05/10 03:51:06;;;;;;;;;;;16.60;92.80;;;;;;5032680;28;19917;-62
2022/05/10 03:53:32;;;;;;;;;;;16.60;92.40;;;;;;5029171;28;19913;-65
2022/05/10 03:55:57;;;;;;;;;;;16.60;92.40;;;;;;5033017;28;19915;-65
2022/05/10 03:58:23;;;;;;;;;;;16.50;92.90;;;;;;5044723;28;19913;-65
2022/05/10 04:00:48;;;;;;;;;;;16.50;93.30;;;;;;5053132;28;19916;-66
2022/05/10 04:03:14;;;;;;;;;;;16.50;93.60;;;;;;5030232;28;20390;-64
2022/05/10 04:05:40;;;;;;;;;;;16.40;92.80;;;;;;5029559;28;20035;-63
2022/05/10 04:08:05;;;;;;;;;;;16.40;94.00;;;;;;5030675;28;19998;-63
2022/05/10 04:10:31;;;;;;;;;;;16.40;93.90;;;;;;5029123;28;19917;-63
2022/05/10 04:12:57;;;;;;;;;;;16.40;94.00;;;;;;5049295;28;19916;-66
2022/05/10 04:15:22;;;;;;;;;;;16.40;93.60;;;;;;5029842;28;20334;-63
2022/05/10 04:17:48;;;;;;;;;;;16.40;93.70;;;;;;5035924;28;20004;-65
2022/05/10 04:20:14;;;;;;;;;;;16.40;94.20;;;;;;5043405;28;19913;-64
2022/05/10 04:22:39;;;;;;;;;;;16.40;93.80;;;;;;5042937;28;19928;-65
2022/05/10 04:25:05;;;;;;;;;;;16.40;94.30;;;;;;5032226;28;19909;-65
2022/05/10 04:27:31;;;;;;;;;;;16.40;94.20;;;;;;5034530;28;19912;-65
2022/05/10 04:29:56;;;;;;;;;;;16.40;94.50;;;;;;5036148;28;20351;-63
2022/05/10 04:32:22;;;;;;;;;;;16.40;94.20;;;;;;5028887;28;19914;-65
2022/05/10 04:34:47;;;;;;;;;;;16.40;93.80;;;;;;5028396;28;20289;-65
2022/05/10 04:37:14;;;;;;;;;;;16.40;94.20;;;;;;5030247;28;19915;-61
2022/05/10 04:42:24;;;;;;;;;;;16.50;94.20;;;;;;5028607;28;19983;-65
2022/05/10 04:44:50;;;;;;;;;;;16.50;93.80;;;;;;5028745;28;20337;-64
2022/05/10 04:47:15;;;;;;;;;;;16.50;93.70;;;;;;5027464;28;19913;-65
2022/05/10 04:49:41;;;;;;;;;;;16.60;93.60;;;;;;5038783;28;19975;-63
2022/05/10 04:52:08;;;;;;;;;;;16.60;94.10;;;;;;5031669;28;20008;-66
2022/05/10 04:54:34;;;;;;;;;;;16.60;94.00;;;;;;5031713;28;19920;-64
2022/05/10 04:57:00;;;;;;;;;;;16.60;94.10;;;;;;5027482;28;19913;-63
2022/05/10 04:59:25;;;;;;;;;;;16.60;94.10;;;;;;5038865;28;19976;-65
2022/05/10 05:01:51;;;;;;;;;;;16.70;93.90;;;;;;5037054;28;20323;-65
2022/05/10 05:04:16;;;;;;;;;;;16.70;93.90;;;;;;5029367;28;19917;-64
2022/05/10 05:06:42;;;;;;;;;;;16.70;94.00;;;;;;5030401;28;19924;-66
2022/05/10 05:09:07;;;;;;;;;;;16.70;93.20;;;;;;5042543;28;19916;-65
2022/05/10 05:11:33;;;;;;;;;;;16.80;94.50;;;;;;5041436;28;19916;-65
2022/05/10 05:13:58;;;;;;;;;;;16.80;94.40;;;;;;5041820;28;20370;-65
2022/05/10 05:16:24;;;;;;;;;;;16.70;94.30;;;;;;5032462;28;20380;-65
2022/05/10 05:18:49;;;;;;;;;;;16.80;94.20;;;;;;5030543;28;20442;-64
2022/05/10 05:21:15;;;;;;;;;;;16.80;94.00;;;;;;5029901;28;19992;-66
2022/05/10 05:23:41;;;;;;;;;;;16.80;93.60;;;;;;5043032;28;19928;-63
2022/05/10 05:26:07;;;;;;;;;;;16.80;93.90;;;;;;5043316;28;19912;-66
2022/05/10 05:28:32;;;;;;;;;;;16.90;94.40;;;;;;5045802;28;20286;-65
2022/05/10 05:30:58;;;;;;;;;;;16.90;94.30;;;;;;5032510;28;19913;-65
2022/05/10 05:33:24;;;;;;;;;;;16.90;94.40;;;;;;5032801;28;19920;-65
2022/05/10 05:35:49;;;;;;;;;;;16.90;94.60;;;;;;5032680;28;19914;-65
2022/05/10 05:38:15;;;;;;;;;;;16.90;94.40;;;;;;5031699;28;19972;-66
2022/05/10 05:40:41;;;;;;;;;;;16.90;94.30;;;;;;5042848;28;19925;-66
2022/05/10 05:43:07;;;;;;;;;;;17.00;94.30;;;;;;5030524;28;19922;-65
2022/05/10 05:45:32;;;;;;;;;;;17.00;94.20;;;;;;5030556;28;19920;-65
2022/05/10 05:47:58;;;;;;;;;;;17.00;94.20;;;;;;5029722;28;19935;-66
2022/05/10 05:50:24;;;;;;;;;;;17.00;94.40;;;;;;5027128;28;20006;-64
2022/05/10 05:52:52;;;;;;;;;;;17.10;94.40;;;;;;5030897;28;19917;-63
2022/05/10 05:55:18;;;;;;;;;;;17.10;94.20;;;;;;5037398;28;19948;-65
2022/05/10 05:57:44;;;;;;;;;;;17.20;94.00;;;;;;5031662;28;19910;-65
2022/05/10 06:00:11;;;;;;;;;;;17.20;93.90;;;;;;5045295;28;19938;-66
2022/05/10 06:02:37;;;;;;;;;;;17.20;93.80;;;;;;5036297;28;19921;-66
2022/05/10 06:05:03;;;;;;;;;;;17.30;94.00;;;;;;5033283;28;19919;-63
2022/05/10 06:07:28;;;;;;;;;;;17.40;93.70;;;;;;5032829;28;19995;-63
2022/05/10 06:09:54;;;;;;;;;;;17.40;93.70;;;;;;5038753;28;19909;-64
2022/05/10 06:12:20;;;;;;;;;;;17.50;93.60;;;;;;5040038;28;19913;-65
2022/05/10 06:14:46;;;;;;;;;;;17.60;93.60;;;;;;5026789;28;19913;-64
2022/05/10 06:17:12;;;;;;;;;;;17.60;93.50;;;;;;5030635;28;20440;-62
2022/05/10 06:19:38;;;;;;;;;;;17.70;93.20;;;;;;5026782;28;20432;-65
2022/05/10 06:22:05;;;;;;;;;;;17.80;93.20;;;;;;5027345;28;19913;-65
2022/05/10 06:24:31;;;;;;;;;;;17.90;93.20;;;;;;5027524;28;19917;-58
2022/05/10 06:26:56;;;;;;;;;;;17.90;93.10;;;;;;5038811;28;19913;-58
2022/05/10 06:29:22;;;;;;;;;;;18.00;93.20;;;;;;5034985;28;20000;-58
2022/05/10 06:31:47;;;;;;;;;;;18.10;93.00;;;;;;5028550;28;19924;-58
2022/05/10 06:34:13;;;;;;;;;;;18.10;93.10;;;;;;5033881;28;20324;-58
2022/05/10 06:36:40;;;;;;;;;;;18.20;93.00;;;;;;5031745;28;19913;-56
2022/05/10 06:39:06;;;;;;;;;;;18.30;93.00;;;;;;5025835;28;19920;-58
2022/05/10 06:41:32;;;;;;;;;;;18.40;92.90;;;;;;5028519;28;19943;-58
2022/05/10 06:43:58;;;;;;;;;;;18.50;92.90;;;;;;5029876;28;19925;-59
2022/05/10 06:46:24;;;;;;;;;;;18.60;92.80;;;;;;5026817;28;19920;-58
2022/05/10 06:48:50;;;;;;;;;;;18.70;92.80;;;;;;5032801;28;20297;-59
2022/05/10 06:51:17;;;;;;;;;;;18.80;92.80;;;;;;5028960;28;19921;-59
2022/05/10 06:53:43;;;;;;;;;;;18.80;92.60;;;;;;5028154;28;19913;-61
2022/05/10 06:56:09;;;;;;;;;;;18.90;92.60;;;;;;5028740;28;19913;-61
2022/05/10 06:58:35;;;;;;;;;;;19.00;92.50;;;;;;5043018;28;20011;-61
2022/05/10 07:01:01;;;;;;;;;;;19.10;92.40;;;;;;5029899;28;20293;-61
2022/05/10 07:03:31;;;;;;;;;;;19.20;92.60;;;;;;5028398;28;19921;-60
2022/05/10 07:05:58;;;;;;;;;;;19.20;92.40;;;;;;5028090;28;19917;-60
2022/05/10 07:08:24;;;;;;;;;;;19.30;92.20;;;;;;5030968;28;20020;-59
2022/05/10 07:10:49;;;;;;;;;;;19.40;92.30;;;;;;5027972;28;19988;-61
2022/05/10 07:13:16;;;;;;;;;;;19.50;92.10;;;;;;5035814;28;20023;-58
2022/05/10 07:15:42;;;;;;;;;;;19.50;92.00;;;;;;5030707;28;19916;-55
2022/05/10 07:18:07;;;;;;;;;;;19.60;92.20;;;;;;5036194;28;19913;-56
2022/05/10 07:20:33;;;;;;;;;;;19.70;91.80;;;;;;5039794;28;19917;-58
2022/05/10 07:22:58;;;;;;;;;;;19.70;91.90;;;;;;5037698;28;19925;-58
2022/05/10 07:25:25;;;;;;;;;;;19.80;91.70;;;;;;5026750;28;19929;-58
2022/05/10 07:27:51;;;;;;;;;;;19.90;91.70;;;;;;5030202;28;20392;-58
2022/05/10 07:30:19;;;;;;;;;;;19.80;91.50;;;;;;5028322;28;19995;-58
2022/05/10 07:32:45;;;;;;;;;;;19.90;91.40;;;;;;5029529;28;19944;-58
2022/05/10 07:35:10;;;;;;;;;;;20.00;91.30;;;;;;5030705;28;19955;-58
2022/05/10 07:37:38;;;;;;;;;;;20.00;91.20;;;;;;5033766;28;20396;-57
2022/05/10 07:40:03;;;;;;;;;;;20.10;90.80;;;;;;5033940;28;19913;-57
2022/05/10 07:42:29;;;;;;;;;;;20.10;90.70;;;;;;5031214;28;19921;-58
2022/05/10 07:44:55;;;;;;;;;;;20.10;90.70;;;;;;5038320;28;19909;-58
2022/05/10 07:47:21;;;;;;;;;;;20.10;90.90;;;;;;5037184;28;19920;-58
2022/05/10 07:49:46;;;;;;;;;;;20.20;90.50;;;;;;5029529;28;19917;-57
2022/05/10 07:52:12;;;;;;;;;;;20.20;90.60;;;;;;5033170;28;20424;-58
2022/05/10 07:54:38;;;;;;;;;;;20.20;90.10;;;;;;5033824;28;19917;-58
2022/05/10 07:57:04;;;;;;;;;;;20.20;90.30;;;;;;5031351;28;20271;-57
2022/05/10 07:59:31;;;;;;;;;;;20.20;90.50;;;;;;5042542;28;19970;-59
2022/05/10 08:01:57;;;;;;;;;;;20.20;90.40;;;;;;5044396;28;19920;-58
2022/05/10 08:04:22;;;;;;;;;;;20.30;90.30;;;;;;5029844;28;20371;-58
2022/05/10 08:06:48;;;;;;;;;;;20.30;90.30;;;;;;5046338;28;19932;-58
2022/05/10 08:09:14;;;;;;;;;;;20.40;90.20;;;;;;5034576;28;19956;-58
2022/05/10 08:11:40;;;;;;;;;;;20.50;90.00;;;;;;5031997;28;19913;-58
2022/05/10 08:14:06;;;;;;;;;;;20.60;90.30;;;;;;5032390;28;19913;-57
2022/05/10 08:16:32;;;;;;;;;;;20.70;90.10;;;;;;5032600;28;19917;-58
2022/05/10 08:18:58;;;;;;;;;;;20.70;90.00;;;;;;5029691;28;19910;-59
2022/05/10 08:21:23;;;;;;;;;;;20.70;89.80;;;;;;5032499;28;19913;-58
2022/05/10 08:23:52;;;;;;;;;;;20.70;89.40;;;;;;5028859;28;19928;-58
2022/05/10 08:26:20;;;;;;;;;;;20.70;89.10;;;;;;5032302;28;20133;-57
2022/05/10 08:28:45;;;;;;;;;;;20.70;89.50;;;;;;5032836;28;19913;-58
2022/05/10 08:31:11;;;;;;;;;;;20.80;89.30;;;;;;5032507;28;20000;-59
2022/05/10 08:33:38;;;;;;;;;;;20.80;89.10;;;;;;5030861;28;19913;-58
2022/05/10 08:36:04;;;;;;;;;;;20.90;89.50;;;;;;5026279;28;19913;-59
2022/05/10 08:38:30;;;;;;;;;;;21.00;89.70;;;;;;5035742;28;19921;-57
2022/05/10 08:41:04;;;;;;;;;;;21.10;89.00;;;;;;5029702;28;20360;-58
2022/05/10 08:43:48;;;;;;;;;;;21.20;88.70;;;;;;5031955;28;20029;-58
2022/05/10 08:46:16;;;;;;;;;;;21.30;88.30;;;;;;5032386;28;19909;-57
2022/05/10 08:48:42;;;;;;;;;;;21.30;87.60;;;;;;5032930;28;19921;-59
2022/05/10 08:51:08;;;;;;;;;;;21.40;87.50;;;;;;5029696;28;19913;-59
2022/05/10 08:53:33;;;;;;;;;;;21.50;86.40;;;;;;5032156;28;19917;-58
2022/05/10 08:56:01;;;;;;;;;;;21.60;87.30;;;;;;5027687;28;19917;-58
2022/05/10 08:58:38;;;;;;;;;;;21.70;87.00;;;;;;5033448;28;20003;-59
2022/05/10 09:01:08;;;;;;;;;;;21.80;86.60;;;;;;5050289;28;19913;-58
2022/05/10 09:03:38;;;;;;;;;;;21.90;86.20;;;;;;5031434;28;19963;-58
2022/05/10 09:06:09;;;;;;;;;;;22.00;86.50;;;;;;5027997;28;19914;-58
2022/05/10 09:08:34;;;;;;;;;;;22.00;83.80;;;;;;5029693;28;19923;-58
2022/05/10 09:11:04;;;;;;;;;;;22.20;85.10;;;;;;5030504;28;19913;-59
2022/05/10 09:13:30;;;;;;;;;;;22.20;83.90;;;;;;5029269;28;19914;-57
2022/05/10 09:15:57;;;;;;;;;;;22.40;84.60;;;;;;5032701;28;19963;-58
2022/05/10 09:18:25;;;;;;;;;;;22.50;84.10;;;;;;5041201;28;19913;-58
2022/05/10 09:20:57;;;;;;;;;;;22.60;84.60;;;;;;5035943;28;20417;-58
2022/05/10 09:23:28;;;;;;;;;;;22.70;85.00;;;;;;5027973;28;19967;-58
2022/05/10 09:25:55;;;;;;;;;;;22.90;85.30;;;;;;5033415;28;19913;-57
2022/05/10 09:28:38;;;;;;;;;;;23.10;82.00;;;;;;5047564;28;19945;-58
2022/05/10 09:36:51;;;;;;;;;;;23.60;81.00;;;;;;5032447;28;19975;-57
2022/05/10 09:39:20;;;;;;;;;;;23.60;79.80;;;;;;5030630;28;20520;-58
2022/05/10 09:41:46;;;;;;;;;;;23.70;78.80;;;;;;5028356;28;19924;-58
2022/05/10 09:44:27;;;;;;;;;;;23.80;79.70;;;;;;5029397;28;19928;-57
2022/05/10 09:47:11;;;;;;;;;;;23.90;79.60;;;;;;5030804;28;20506;-59
2022/05/10 09:49:38;;;;;;;;;;;23.90;78.30;;;;;;5027330;28;19932;-57
2022/05/10 09:52:04;;;;;;;;;;;24.00;79.10;;;;;;5031504;28;19909;-57
2022/05/10 09:54:40;;;;;;;;;;;24.00;77.20;;;;;;5027063;28;20290;-57
2022/05/10 09:57:10;;;;;;;;;;;24.10;78.40;;;;;;5026847;28;19924;-58
2022/05/10 09:59:47;;;;;;;;;;;24.10;78.20;;;;;;5039423;28;20451;-57
2022/05/10 10:02:30;;;;;;;;;;;24.10;78.10;;;;;;5036278;28;19914;-57
2022/05/10 10:04:56;;;;;;;;;;;24.10;74.70;;;;;;5026927;28;19943;-58
2022/05/10 10:07:25;;;;;;;;;;;24.10;76.70;;;;;;5028336;28;20007;-58
2022/05/10 10:09:55;;;;;;;;;;;24.10;76.20;;;;;;5031849;28;19909;-58
2022/05/10 10:12:41;;;;;;;;;;;24.20;75.10;;;;;;5036644;28;19958;-58
2022/05/10 10:15:25;;;;;;;;;;;24.20;73.80;;;;;;5029295;28;20382;-59
2022/05/10 10:17:53;;;;;;;;;;;24.20;73.30;;;;;;5028288;28;19913;-58
2022/05/10 10:20:36;;;;;;;;;;;24.20;74.80;;;;;;5030224;28;19959;-59
2022/05/10 10:23:07;;;;;;;;;;;24.30;72.90;;;;;;5027154;28;19921;-58
2022/05/10 10:25:39;;;;;;;;;;;24.20;73.20;;;;;;5045158;28;19959;-57
2022/05/10 10:28:07;;;;;;;;;;;24.30;73.20;;;;;;5030562;28;19916;-58
2022/05/10 10:30:35;;;;;;;;;;;24.30;72.50;;;;;;5030920;28;19913;-57
2022/05/10 10:33:20;;;;;;;;;;;24.20;72.00;;;;;;5028600;28;19920;-58
2022/05/10 10:35:49;;;;;;;;;;;24.20;72.90;;;;;;5027243;28;19952;-58
2022/05/10 10:38:20;;;;;;;;;;;24.10;72.30;;;;;;5026371;28;19913;-58
2022/05/10 10:41:06;;;;;;;;;;;24.10;71.80;;;;;;5026986;28;19968;-58
2022/05/10 10:43:36;;;;;;;;;;;24.00;72.50;;;;;;5026541;28;19929;-58
2022/05/10 10:46:05;;;;;;;;;;;24.00;71.70;;;;;;5027607;28;19909;-58
2022/05/10 10:48:38;;;;;;;;;;;24.00;71.00;;;;;;5027193;28;19928;-57
2022/05/10 10:51:03;;;;;;;;;;;24.00;71.80;;;;;;5026068;28;19913;-58
2022/05/10 10:53:29;;;;;;;;;;;24.10;71.60;;;;;;5026528;28;20589;-58
2022/05/10 10:56:09;;;;;;;;;;;24.00;70.60;;;;;;5026484;28;20369;-58
2022/05/10 10:58:35;;;;;;;;;;;24.10;70.80;;;;;;5028153;28;19917;-57
2022/05/10 11:01:06;;;;;;;;;;;24.10;70.30;;;;;;5045582;28;20573;-58
2022/05/10 11:03:50;;;;;;;;;;;24.20;69.50;;;;;;5027224;28;20007;-58
2022/05/10 11:06:16;;;;;;;;;;;24.30;70.30;;;;;;5025410;28;19927;-58
2022/05/10 11:08:54;;;;;;;;;;;24.30;70.20;;;;;;5031767;28;19913;-58
2022/05/10 11:11:39;;;;;;;;;;;24.40;68.60;;;;;;5038252;28;19913;-58
2022/05/10 11:14:07;;;;;;;;;;;24.40;66.90;;;;;;5030130;28;19960;-58
2022/05/10 11:16:33;;;;;;;;;;;24.50;67.60;;;;;;5027265;28;19952;-58
2022/05/10 11:18:59;;;;;;;;;;;24.50;68.40;;;;;;5049750;28;20015;-58
2022/05/10 11:21:32;;;;;;;;;;;24.60;68.60;;;;;;5038350;28;20445;-58
2022/05/10 11:24:17;;;;;;;;;;;24.70;66.90;;;;;;5033809;28;19921;-58
2022/05/10 11:26:45;;;;;;;;;;;24.80;67.70;;;;;;5030943;28;19913;-59
2022/05/10 11:29:20;;;;;;;;;;;24.90;67.60;;;;;;5029720;28;19967;-58
2022/05/10 11:31:53;;;;;;;;;;;25.00;65.70;;;;;;5032984;28;20347;-58
2022/05/10 11:34:37;;;;;;;;;;;25.00;68.20;;;;;;5031120;28;19915;-58
2022/05/10 11:37:05;;;;;;;;;;;25.10;68.00;;;;;;5030320;28;19955;-59
2022/05/10 11:39:30;;;;;;;;;;;25.10;67.00;;;;;;5033482;28;19909;-59
2022/05/10 11:42:02;;;;;;;;;;;25.20;67.50;;;;;;5030427;28;19914;-59
2022/05/10 11:44:27;;;;;;;;;;;25.20;68.00;;;;;;5030000;28;19978;-58
2022/05/10 11:47:00;;;;;;;;;;;25.30;67.70;;;;;;5029372;28;20012;-58
2022/05/10 11:49:31;;;;;;;;;;;25.50;64.60;;;;;;5030777;28;19937;-57
2022/05/10 11:52:00;;;;;;;;;;;25.60;65.90;;;;;;5034236;28;20077;-58
2022/05/10 11:54:28;;;;;;;;;;;25.70;66.20;;;;;;5029274;28;19921;-58
2022/05/10 11:56:54;;;;;;;;;;;25.70;64.60;;;;;;5028722;28;19913;-58
2022/05/10 11:59:28;;;;;;;;;;;25.70;65.50;;;;;;5029124;28;19917;-58
2022/05/10 12:01:55;;;;;;;;;;;25.70;63.70;;;;;;5028686;28;19921;-58
2022/05/10 12:04:34;;;;;;;;;;;25.80;65.30;;;;;;5030460;28;20007;-59
2022/05/10 12:07:18;;;;;;;;;;;25.80;63.00;;;;;;5031631;28;19937;-59
2022/05/10 12:09:52;;;;;;;;;;;25.80;64.00;;;;;;5053373;28;20007;-59
2022/05/10 12:12:33;;;;;;;;;;;25.80;64.50;;;;;;5030150;28;19935;-59
2022/05/10 12:23:47;;;;;;;;;;;25.80;63.40;;;;;;5037141;28;20413;-59
2022/05/10 12:26:31;;;;;;;;;;;25.90;63.50;;;;;;5029825;28;20007;-58
2022/05/10 12:28:56;;;;;;;;;;;25.90;63.60;;;;;;5024397;28;19913;-58
2022/05/10 12:31:31;;;;;;;;;;;26.00;62.80;;;;;;5029627;28;19921;-58
2022/05/10 12:33:57;;;;;;;;;;;26.00;63.40;;;;;;5032782;28;19981;-59
2022/05/10 12:36:27;;;;;;;;;;;26.00;63.10;;;;;;5029201;28;19917;-57
2022/05/10 12:38:54;;;;;;;;;;;26.00;62.90;;;;;;5030949;28;19924;-57
2022/05/10 12:41:40;;;;;;;;;;;26.00;61.70;;;;;;5029330;28;19917;-59
2022/05/10 12:44:13;;;;;;;;;;;26.00;63.00;;;;;;5029344;28;19982;-58
2022/05/10 12:46:42;;;;;;;;;;;26.00;63.00;;;;;;5027497;28;19913;-58
2022/05/10 12:49:14;;;;;;;;;;;26.00;62.80;;;;;;5032037;28;19921;-59
2022/05/10 12:51:49;;;;;;;;;;;26.00;62.80;;;;;;5032691;28;20006;-58
2022/05/10 12:54:15;;;;;;;;;;;26.00;62.70;;;;;;5031416;28;19948;-59
2022/05/10 12:56:40;;;;;;;;;;;26.00;62.10;;;;;;5032252;28;19943;-58
2022/05/10 12:59:14;;;;;;;;;;;26.00;60.40;;;;;;5029443;28;19980;-59
2022/05/10 13:01:40;;;;;;;;;;;26.00;60.50;;;;;;5025782;28;19917;-59
2022/05/10 13:04:13;;;;;;;;;;;26.00;60.60;;;;;;5032383;28;19917;-58
2022/05/10 13:06:48;;;;;;;;;;;26.00;61.10;;;;;;5032988;28;19913;-58
2022/05/10 13:09:30;;;;;;;;;;;26.00;61.60;;;;;;5030283;28;19917;-59
2022/05/10 13:12:10;;;;;;;;;;;26.00;59.90;;;;;;5027566;28;20014;-59
2022/05/10 13:14:38;;;;;;;;;;;26.00;59.20;;;;;;5027551;28;19932;-59
2022/05/10 13:17:04;;;;;;;;;;;26.00;60.10;;;;;;5028345;28;19913;-57
2022/05/10 13:19:30;;;;;;;;;;;26.10;60.20;;;;;;5036154;28;19928;-57
2022/05/10 13:21:56;;;;;;;;;;;26.10;59.70;;;;;;5031090;28;19913;-58
2022/05/10 13:24:22;;;;;;;;;;;26.00;60.80;;;;;;5028030;28;19917;-58
2022/05/10 13:26:55;;;;;;;;;;;26.00;61.20;;;;;;5032372;28;20385;-58
2022/05/10 13:29:34;;;;;;;;;;;26.10;60.60;;;;;;5026333;28;19913;-58
2022/05/10 13:32:00;;;;;;;;;;;26.00;59.10;;;;;;5026647;28;19924;-59
2022/05/10 13:34:26;;;;;;;;;;;25.90;58.80;;;;;;5030685;28;19917;-59
2022/05/10 13:36:52;;;;;;;;;;;25.90;59.80;;;;;;5051462;28;19912;-59
2022/05/10 13:39:25;;;;;;;;;;;26.00;59.20;;;;;;5037611;28;19909;-59
2022/05/10 13:41:52;;;;;;;;;;;26.00;59.30;;;;;;5032916;28;19917;-59
2022/05/10 13:44:19;;;;;;;;;;;25.90;58.30;;;;;;5027844;28;19917;-59
2022/05/10 13:46:47;;;;;;;;;;;26.00;58.60;;;;;;5024145;28;19913;-58
2022/05/10 13:49:14;;;;;;;;;;;26.00;58.90;;;;;;5030836;28;20408;-58
2022/05/10 13:51:43;;;;;;;;;;;26.00;59.00;;;;;;5029231;28;19984;-59
2022/05/10 13:54:20;;;;;;;;;;;26.10;58.30;;;;;;5024846;28;20040;-59
2022/05/10 13:56:46;;;;;;;;;;;26.10;58.50;;;;;;5024934;28;20057;-59
2022/05/10 13:59:12;;;;;;;;;;;26.20;58.10;;;;;;5026612;28;19952;-58
2022/05/10 14:01:40;;;;;;;;;;;26.30;59.20;;;;;;5024928;28;20320;-58
2022/05/10 14:04:07;;;;;;;;;;;26.30;59.30;;;;;;5017503;28;19922;-58
2022/05/10 14:06:33;;;;;;;;;;;26.40;59.00;;;;;;5027223;28;19917;-58
2022/05/10 14:09:04;;;;;;;;;;;26.50;58.90;;;;;;5024573;28;19913;-58
2022/05/10 14:11:30;;;;;;;;;;;26.50;58.30;;;;;;5027280;28;19921;-58
2022/05/10 14:13:57;;;;;;;;;;;26.50;58.20;;;;;;5025298;28;20348;-59
2022/05/10 14:16:36;;;;;;;;;;;26.50;58.30;;;;;;5023699;28;19917;-58
2022/05/10 14:19:16;;;;;;;;;;;26.50;58.10;;;;;;5024545;28;19920;-58
2022/05/10 14:21:43;;;;;;;;;;;26.50;57.60;;;;;;5036112;28;19974;-59
2022/05/10 14:24:10;;;;;;;;;;;26.50;58.40;;;;;;5028695;28;20019;-59
2022/05/10 14:26:37;;;;;;;;;;;26.40;57.70;;;;;;5023217;28;19925;-57
2022/05/10 14:29:11;;;;;;;;;;;26.50;57.80;;;;;;5024914;28;19941;-58
2022/05/10 14:31:37;;;;;;;;;;;26.40;57.60;;;;;;5021180;28;19917;-58
2022/05/10 14:34:03;;;;;;;;;;;26.50;57.60;;;;;;5026074;28;19955;-58
2022/05/10 14:36:30;;;;;;;;;;;26.50;57.50;;;;;;5023221;28;20011;-58
2022/05/10 14:38:56;;;;;;;;;;;26.50;57.80;;;;;;5024092;28;20459;-58
2022/05/10 14:41:31;;;;;;;;;;;26.60;57.60;;;;;;5022259;28;19913;-58
2022/05/10 14:43:57;;;;;;;;;;;26.60;57.00;;;;;;5024944;28;19927;-59
2022/05/10 14:46:26;;;;;;;;;;;26.60;57.00;;;;;;5021195;28;19929;-58